sensor_id;sensor_type;location;lat;lon;timestamp;pressure;altitude;pressure_sealevel;temperature;humidity
12973;BME280;6551;51.056;9.466;2022-08-01T00:00:25;97602.91;;;22.31;78.39
12973;BME280;6551;51.056;9.466;2022-08-01T00:02:51;97600.03;;;22.22;77.86
12973;BME280;6551;51.056;9.466;2022-08-01T00:05:16;97596.69;;;22.11;80.37
12973;BME280;6551;51.056;9.466;2022-08-01T00:07:43;97600.41;;;21.97;81.68
12973;BME280;6551;51.056;9.466;2022-08-01T00:10:13;97595.78;;;21.79;83.21
12973;BME280;6551;51.056;9.466;2022-08-01T00:12:40;97594.72;;;21.75;82.08
12973;BME280;6551;51.056;9.466;2022-08-01T00:15:09;97591.28;;;21.69;83.17
12973;BME280;6551;51.056;9.466;2022-08-01T00:17:35;97594.66;;;21.80;79.95
12973;BME280;6551;51.056;9.466;2022-08-01T00:20:02;97586.94;;;21.92;81.53
12973;BME280;6551;51.056;9.466;2022-08-01T00:22:31;97585.84;;;22.11;78.12
12973;BME280;6551;51.056;9.466;2022-08-01T00:24:56;97587.44;;;22.31;77.04
12973;BME280;6551;51.056;9.466;2022-08-01T00:27:22;97581.00;;;22.41;77.65
12973;BME280;6551;51.056;9.466;2022-08-01T00:29:48;97578.97;;;22.33;80.80
12973;BME280;6551;51.056;9.466;2022-08-01T00:32:14;97573.16;;;22.07;82.50
12973;BME280;6551;51.056;9.466;2022-08-01T00:34:39;97573.84;;;21.75;85.29
12973;BME280;6551;51.056;9.466;2022-08-01T00:37:05;97559.91;;;21.44;87.88
12973;BME280;6551;51.056;9.466;2022-08-01T00:39:30;97563.84;;;21.33;87.45
12973;BME280;6551;51.056;9.466;2022-08-01T00:41:59;97559.69;;;21.41;85.30
12973;BME280;6551;51.056;9.466;2022-08-01T00:44:24;97570.97;;;21.48;83.97
12973;BME280;6551;51.056;9.466;2022-08-01T00:46:50;97571.38;;;21.60;84.77
12973;BME280;6551;51.056;9.466;2022-08-01T00:49:16;97569.25;;;21.57;85.37
12973;BME280;6551;51.056;9.466;2022-08-01T00:51:42;97562.50;;;21.54;85.38
12973;BME280;6551;51.056;9.466;2022-08-01T00:54:08;97562.69;;;21.39;87.22
12973;BME280;6551;51.056;9.466;2022-08-01T00:56:33;97567.88;;;21.36;87.46
12973;BME280;6551;51.056;9.466;2022-08-01T00:58:59;97554.41;;;21.31;88.18
12973;BME280;6551;51.056;9.466;2022-08-01T01:01:25;97553.09;;;21.28;86.81
12973;BME280;6551;51.056;9.466;2022-08-01T01:03:52;97556.53;;;21.34;87.02
12973;BME280;6551;51.056;9.466;2022-08-01T01:06:41;97556.28;;;21.30;86.89
12973;BME280;6551;51.056;9.466;2022-08-01T01:14:52;97545.47;;;21.30;87.27
12973;BME280;6551;51.056;9.466;2022-08-01T01:17:28;97546.41;;;21.21;88.95
12973;BME280;6551;51.056;9.466;2022-08-01T01:20:00;97551.59;;;21.17;88.83
12973;BME280;6551;51.056;9.466;2022-08-01T01:28:17;97552.25;;;21.28;87.74
12973;BME280;6551;51.056;9.466;2022-08-01T01:31:05;97546.41;;;21.21;89.60
12973;BME280;6551;51.056;9.466;2022-08-01T01:33:34;97542.88;;;21.20;89.25
12973;BME280;6551;51.056;9.466;2022-08-01T01:36:05;97552.50;;;21.31;87.77
12973;BME280;6551;51.056;9.466;2022-08-01T01:38:37;97554.13;;;21.32;86.54
12973;BME280;6551;51.056;9.466;2022-08-01T01:41:08;97556.53;;;21.34;87.41
12973;BME280;6551;51.056;9.466;2022-08-01T01:43:35;97556.69;;;21.42;85.51
12973;BME280;6551;51.056;9.466;2022-08-01T01:46:03;97564.25;;;21.64;85.30
12973;BME280;6551;51.056;9.466;2022-08-01T01:48:30;97558.84;;;21.64;84.79
12973;BME280;6551;51.056;9.466;2022-08-01T01:50:57;97564.56;;;21.81;83.04
12973;BME280;6551;51.056;9.466;2022-08-01T01:53:24;97567.53;;;22.03;82.37
12973;BME280;6551;51.056;9.466;2022-08-01T01:55:53;97558.84;;;22.20;81.45
12973;BME280;6551;51.056;9.466;2022-08-01T01:58:20;97569.75;;;22.34;78.49
12973;BME280;6551;51.056;9.466;2022-08-01T02:00:48;97562.09;;;22.54;75.21
12973;BME280;6551;51.056;9.466;2022-08-01T02:03:16;97564.44;;;22.75;76.28
12973;BME280;6551;51.056;9.466;2022-08-01T02:05:43;97564.69;;;22.92;75.12
12973;BME280;6551;51.056;9.466;2022-08-01T02:08:10;97563.16;;;22.86;76.60
12973;BME280;6551;51.056;9.466;2022-08-01T02:10:39;97563.59;;;22.60;79.23
12973;BME280;6551;51.056;9.466;2022-08-01T02:13:06;97566.56;;;22.45;78.94
12973;BME280;6551;51.056;9.466;2022-08-01T02:15:35;97567.84;;;22.34;80.14
12973;BME280;6551;51.056;9.466;2022-08-01T02:18:05;97562.88;;;22.23;80.35
12973;BME280;6551;51.056;9.466;2022-08-01T02:20:34;97568.19;;;21.95;82.66
12973;BME280;6551;51.056;9.466;2022-08-01T02:23:10;97567.06;;;22.15;80.56
12973;BME280;6551;51.056;9.466;2022-08-01T02:25:43;97571.00;;;22.23;80.21
12973;BME280;6551;51.056;9.466;2022-08-01T02:28:16;97570.84;;;22.33;79.05
12973;BME280;6551;51.056;9.466;2022-08-01T02:30:47;97573.94;;;22.26;80.47
12973;BME280;6551;51.056;9.466;2022-08-01T02:33:22;97563.78;;;22.18;81.60
12973;BME280;6551;51.056;9.466;2022-08-01T02:35:54;97564.44;;;22.10;82.34
12973;BME280;6551;51.056;9.466;2022-08-01T02:38:25;97563.81;;;22.13;82.06
12973;BME280;6551;51.056;9.466;2022-08-01T02:40:54;97563.09;;;22.07;81.98
12973;BME280;6551;51.056;9.466;2022-08-01T02:43:26;97570.66;;;22.10;81.62
12973;BME280;6551;51.056;9.466;2022-08-01T02:45:58;97569.66;;;22.06;81.25
12973;BME280;6551;51.056;9.466;2022-08-01T02:48:26;97573.13;;;22.26;80.74
12973;BME280;6551;51.056;9.466;2022-08-01T02:50:57;97565.16;;;22.16;81.54
12973;BME280;6551;51.056;9.466;2022-08-01T02:53:25;97563.94;;;22.40;80.47
12973;BME280;6551;51.056;9.466;2022-08-01T02:55:54;97565.44;;;22.46;80.44
12973;BME280;6551;51.056;9.466;2022-08-01T02:58:21;97573.34;;;22.61;76.13
12973;BME280;6551;51.056;9.466;2022-08-01T03:00:49;97573.41;;;22.43;80.78
12973;BME280;6551;51.056;9.466;2022-08-01T03:03:15;97558.47;;;22.27;81.50
12973;BME280;6551;51.056;9.466;2022-08-01T03:05:44;97565.03;;;22.07;83.36
12973;BME280;6551;51.056;9.466;2022-08-01T03:08:11;97561.72;;;21.91;83.21
12973;BME280;6551;51.056;9.466;2022-08-01T03:10:40;97559.97;;;22.00;82.58
12973;BME280;6551;51.056;9.466;2022-08-01T03:13:08;97555.34;;;22.01;83.30
12973;BME280;6551;51.056;9.466;2022-08-01T03:15:37;97566.13;;;22.06;82.50
12973;BME280;6551;51.056;9.466;2022-08-01T03:18:06;97555.41;;;22.14;82.33
12973;BME280;6551;51.056;9.466;2022-08-01T03:20:33;97557.41;;;22.09;81.48
12973;BME280;6551;51.056;9.466;2022-08-01T03:23:06;97560.69;;;22.06;83.34
12973;BME280;6551;51.056;9.466;2022-08-01T03:25:35;97556.31;;;22.10;81.84
12973;BME280;6551;51.056;9.466;2022-08-01T03:28:04;97559.81;;;22.10;83.18
12973;BME280;6551;51.056;9.466;2022-08-01T03:30:31;97561.88;;;22.00;82.25
12973;BME280;6551;51.056;9.466;2022-08-01T03:32:59;97560.78;;;22.01;83.69
12973;BME280;6551;51.056;9.466;2022-08-01T03:35:34;97567.16;;;22.10;81.55
12973;BME280;6551;51.056;9.466;2022-08-01T03:38:02;97566.88;;;21.93;84.91
12973;BME280;6551;51.056;9.466;2022-08-01T03:40:49;97569.06;;;22.09;80.76
12973;BME280;6551;51.056;9.466;2022-08-01T03:43:30;97567.34;;;22.13;82.67
12973;BME280;6551;51.056;9.466;2022-08-01T03:46:05;97575.84;;;22.26;80.83
12973;BME280;6551;51.056;9.466;2022-08-01T03:48:39;97576.59;;;22.12;82.45
12973;BME280;6551;51.056;9.466;2022-08-01T03:51:07;97578.13;;;22.00;83.74
12973;BME280;6551;51.056;9.466;2022-08-01T03:53:35;97570.78;;;21.82;85.48
12973;BME280;6551;51.056;9.466;2022-08-01T03:56:02;97574.59;;;21.62;86.58
12973;BME280;6551;51.056;9.466;2022-08-01T03:58:30;97573.03;;;21.37;88.34
12973;BME280;6551;51.056;9.466;2022-08-01T04:00:57;97572.22;;;21.37;87.00
12973;BME280;6551;51.056;9.466;2022-08-01T04:03:24;97571.16;;;21.56;85.84
12973;BME280;6551;51.056;9.466;2022-08-01T04:05:49;97579.06;;;21.72;84.57
12973;BME280;6551;51.056;9.466;2022-08-01T04:08:15;97580.94;;;21.95;83.45
12973;BME280;6551;51.056;9.466;2022-08-01T04:10:41;97573.31;;;21.97;83.56
12973;BME280;6551;51.056;9.466;2022-08-01T04:13:07;97572.94;;;21.85;83.62
12973;BME280;6551;51.056;9.466;2022-08-01T04:15:33;97585.03;;;21.92;83.00
12973;BME280;6551;51.056;9.466;2022-08-01T04:17:58;97578.94;;;22.00;82.39
12973;BME280;6551;51.056;9.466;2022-08-01T04:20:24;97580.63;;;22.15;81.65
12973;BME280;6551;51.056;9.466;2022-08-01T04:22:50;97585.09;;;22.25;81.27
12973;BME280;6551;51.056;9.466;2022-08-01T04:25:25;97577.88;;;22.34;81.01
12973;BME280;6551;51.056;9.466;2022-08-01T04:27:53;97589.22;;;22.54;79.78
12973;BME280;6551;51.056;9.466;2022-08-01T04:30:28;97592.53;;;22.51;79.50
12973;BME280;6551;51.056;9.466;2022-08-01T04:33:00;97590.31;;;22.53;80.25
12973;BME280;6551;51.056;9.466;2022-08-01T04:35:27;97596.91;;;22.66;79.27
12973;BME280;6551;51.056;9.466;2022-08-01T04:37:55;97603.72;;;22.82;77.51
12973;BME280;6551;51.056;9.466;2022-08-01T04:40:22;97602.41;;;22.93;75.55
12973;BME280;6551;51.056;9.466;2022-08-01T04:42:49;97597.06;;;22.88;78.06
12973;BME280;6551;51.056;9.466;2022-08-01T04:45:16;97596.41;;;22.64;80.86
12973;BME280;6551;51.056;9.466;2022-08-01T04:47:42;97598.31;;;22.63;81.30
12973;BME280;6551;51.056;9.466;2022-08-01T04:50:10;97601.09;;;22.58;79.90
12973;BME280;6551;51.056;9.466;2022-08-01T04:52:37;97602.41;;;22.61;80.20
12973;BME280;6551;51.056;9.466;2022-08-01T04:55:05;97602.13;;;22.62;80.23
12973;BME280;6551;51.056;9.466;2022-08-01T04:57:37;97605.28;;;22.51;80.40
12973;BME280;6551;51.056;9.466;2022-08-01T05:00:04;97607.81;;;22.61;80.70
12973;BME280;6551;51.056;9.466;2022-08-01T05:02:32;97610.03;;;22.59;81.16
12973;BME280;6551;51.056;9.466;2022-08-01T05:04:58;97608.28;;;22.49;80.56
12973;BME280;6551;51.056;9.466;2022-08-01T05:07:23;97612.91;;;22.67;78.59
12973;BME280;6551;51.056;9.466;2022-08-01T05:09:50;97617.06;;;22.79;78.69
12973;BME280;6551;51.056;9.466;2022-08-01T05:12:16;97618.47;;;22.76;78.04
12973;BME280;6551;51.056;9.466;2022-08-01T05:14:42;97624.56;;;23.00;75.99
12973;BME280;6551;51.056;9.466;2022-08-01T05:17:08;97622.78;;;23.23;74.40
12973;BME280;6551;51.056;9.466;2022-08-01T05:19:39;97622.50;;;23.38;72.95
12973;BME280;6551;51.056;9.466;2022-08-01T05:22:07;97620.56;;;23.66;70.35
12973;BME280;6551;51.056;9.466;2022-08-01T05:24:35;97622.97;;;23.81;70.54
12973;BME280;6551;51.056;9.466;2022-08-01T05:27:03;97619.53;;;23.89;70.32
12973;BME280;6551;51.056;9.466;2022-08-01T05:29:29;97626.84;;;24.02;70.31
12973;BME280;6551;51.056;9.466;2022-08-01T05:31:55;97627.03;;;24.19;69.92
12973;BME280;6551;51.056;9.466;2022-08-01T05:34:22;97626.22;;;24.19;70.78
12973;BME280;6551;51.056;9.466;2022-08-01T05:36:47;97625.34;;;24.23;69.09
12973;BME280;6551;51.056;9.466;2022-08-01T05:39:14;97633.91;;;24.03;70.78
12973;BME280;6551;51.056;9.466;2022-08-01T05:41:41;97634.03;;;23.98;72.42
12973;BME280;6551;51.056;9.466;2022-08-01T05:44:07;97631.94;;;23.81;73.62
12973;BME280;6551;51.056;9.466;2022-08-01T05:46:34;97634.47;;;23.64;74.19
12973;BME280;6551;51.056;9.466;2022-08-01T05:49:02;97631.97;;;23.54;74.80
12973;BME280;6551;51.056;9.466;2022-08-01T05:51:28;97633.50;;;23.01;78.59
12973;BME280;6551;51.056;9.466;2022-08-01T05:53:54;97639.75;;;23.01;78.14
12973;BME280;6551;51.056;9.466;2022-08-01T05:56:21;97632.84;;;22.77;78.99
12973;BME280;6551;51.056;9.466;2022-08-01T05:58:48;97625.94;;;22.84;78.39
12973;BME280;6551;51.056;9.466;2022-08-01T06:01:13;97640.13;;;22.95;77.83
12973;BME280;6551;51.056;9.466;2022-08-01T06:03:39;97639.47;;;23.16;76.70
12973;BME280;6551;51.056;9.466;2022-08-01T06:06:05;97640.88;;;22.68;76.34
12973;BME280;6551;51.056;9.466;2022-08-01T06:08:31;97648.00;;;22.27;78.37
12973;BME280;6551;51.056;9.466;2022-08-01T06:10:57;97650.69;;;22.64;76.56
12973;BME280;6551;51.056;9.466;2022-08-01T06:13:23;97642.84;;;22.62;80.00
12973;BME280;6551;51.056;9.466;2022-08-01T06:15:49;97648.34;;;22.76;76.24
12973;BME280;6551;51.056;9.466;2022-08-01T06:18:15;97655.75;;;22.70;76.44
12973;BME280;6551;51.056;9.466;2022-08-01T06:20:41;97659.88;;;22.68;76.28
12973;BME280;6551;51.056;9.466;2022-08-01T06:23:08;97655.22;;;22.50;78.60
12973;BME280;6551;51.056;9.466;2022-08-01T06:25:33;97666.09;;;22.50;77.79
12973;BME280;6551;51.056;9.466;2022-08-01T06:28:00;97670.50;;;22.64;75.47
12973;BME280;6551;51.056;9.466;2022-08-01T06:30:26;97673.59;;;22.77;76.65
12973;BME280;6551;51.056;9.466;2022-08-01T06:32:52;97677.66;;;22.74;77.04
12973;BME280;6551;51.056;9.466;2022-08-01T06:35:18;97678.25;;;22.90;76.13
12973;BME280;6551;51.056;9.466;2022-08-01T06:37:44;97675.47;;;23.08;74.50
12973;BME280;6551;51.056;9.466;2022-08-01T06:40:12;97687.50;;;23.35;73.87
12973;BME280;6551;51.056;9.466;2022-08-01T06:42:38;97681.41;;;23.56;73.03
12973;BME280;6551;51.056;9.466;2022-08-01T06:45:06;97680.38;;;23.66;73.77
12973;BME280;6551;51.056;9.466;2022-08-01T06:47:32;97684.44;;;23.82;72.50
12973;BME280;6551;51.056;9.466;2022-08-01T06:49:58;97689.34;;;24.07;72.22
12973;BME280;6551;51.056;9.466;2022-08-01T06:52:24;97680.63;;;24.32;70.39
12973;BME280;6551;51.056;9.466;2022-08-01T06:54:51;97691.66;;;24.85;70.60
12973;BME280;6551;51.056;9.466;2022-08-01T06:57:16;97687.78;;;25.31;68.45
12973;BME280;6551;51.056;9.466;2022-08-01T06:59:43;97683.03;;;25.76;65.13
12973;BME280;6551;51.056;9.466;2022-08-01T07:02:08;97688.72;;;26.05;64.62
12973;BME280;6551;51.056;9.466;2022-08-01T07:04:34;97685.88;;;26.19;62.87
12973;BME280;6551;51.056;9.466;2022-08-01T07:07:00;97689.13;;;26.29;63.00
12973;BME280;6551;51.056;9.466;2022-08-01T07:09:26;97686.25;;;26.34;61.81
12973;BME280;6551;51.056;9.466;2022-08-01T07:11:53;97689.75;;;26.18;62.31
12973;BME280;6551;51.056;9.466;2022-08-01T07:14:20;97687.31;;;26.16;62.47
12973;BME280;6551;51.056;9.466;2022-08-01T07:16:45;97672.91;;;25.68;64.36
12973;BME280;6551;51.056;9.466;2022-08-01T07:19:11;97675.03;;;25.79;63.61
12973;BME280;6551;51.056;9.466;2022-08-01T07:21:38;97676.84;;;26.09;63.42
12973;BME280;6551;51.056;9.466;2022-08-01T07:24:05;97678.06;;;26.43;63.22
12973;BME280;6551;51.056;9.466;2022-08-01T07:26:31;97675.81;;;26.70;61.34
12973;BME280;6551;51.056;9.466;2022-08-01T07:28:57;97677.09;;;26.90;60.84
12973;BME280;6551;51.056;9.466;2022-08-01T07:31:23;97682.69;;;26.94;60.81
12973;BME280;6551;51.056;9.466;2022-08-01T07:33:49;97677.25;;;26.85;61.11
12973;BME280;6551;51.056;9.466;2022-08-01T07:36:16;97673.72;;;26.67;61.31
12973;BME280;6551;51.056;9.466;2022-08-01T07:38:43;97676.91;;;26.61;61.19
12973;BME280;6551;51.056;9.466;2022-08-01T07:41:09;97680.16;;;26.54;61.33
12973;BME280;6551;51.056;9.466;2022-08-01T07:43:35;97681.06;;;26.24;61.96
12973;BME280;6551;51.056;9.466;2022-08-01T07:46:02;97678.84;;;26.26;63.24
12973;BME280;6551;51.056;9.466;2022-08-01T07:48:28;97676.69;;;26.06;63.27
12973;BME280;6551;51.056;9.466;2022-08-01T07:50:54;97681.16;;;25.93;62.88
12973;BME280;6551;51.056;9.466;2022-08-01T07:53:21;97680.78;;;25.78;63.86
12973;BME280;6551;51.056;9.466;2022-08-01T07:55:46;97679.16;;;25.77;62.74
12973;BME280;6551;51.056;9.466;2022-08-01T07:58:13;97679.38;;;25.89;63.81
12973;BME280;6551;51.056;9.466;2022-08-01T08:00:39;97676.75;;;26.23;62.65
12973;BME280;6551;51.056;9.466;2022-08-01T08:03:05;97685.59;;;26.37;61.83
12973;BME280;6551;51.056;9.466;2022-08-01T08:05:31;97678.06;;;26.43;62.61
12973;BME280;6551;51.056;9.466;2022-08-01T08:08:09;97682.72;;;26.68;62.00
12973;BME280;6551;51.056;9.466;2022-08-01T08:10:36;97685.78;;;26.84;60.37
12973;BME280;6551;51.056;9.466;2022-08-01T08:13:02;97686.06;;;27.08;59.45
12973;BME280;6551;51.056;9.466;2022-08-01T08:15:29;97692.47;;;27.20;60.18
12973;BME280;6551;51.056;9.466;2022-08-01T08:17:55;97699.88;;;27.20;59.39
12973;BME280;6551;51.056;9.466;2022-08-01T08:20:20;97690.88;;;27.19;59.73
12973;BME280;6551;51.056;9.466;2022-08-01T08:22:53;97700.44;;;26.79;60.46
12973;BME280;6551;51.056;9.466;2022-08-01T08:25:19;97699.91;;;26.94;59.89
12973;BME280;6551;51.056;9.466;2022-08-01T08:27:48;97699.78;;;26.82;60.28
12973;BME280;6551;51.056;9.466;2022-08-01T08:30:14;97693.00;;;26.62;61.36
12973;BME280;6551;51.056;9.466;2022-08-01T08:32:40;97704.56;;;26.94;59.91
12973;BME280;6551;51.056;9.466;2022-08-01T08:35:07;97698.63;;;26.92;59.76
12973;BME280;6551;51.056;9.466;2022-08-01T08:37:34;97697.94;;;27.20;59.95
12973;BME280;6551;51.056;9.466;2022-08-01T08:40:02;97696.94;;;27.42;59.81
12973;BME280;6551;51.056;9.466;2022-08-01T08:42:27;97700.91;;;27.62;58.14
12973;BME280;6551;51.056;9.466;2022-08-01T08:44:53;97700.66;;;27.84;57.69
12973;BME280;6551;51.056;9.466;2022-08-01T08:47:24;97701.34;;;28.02;57.66
12973;BME280;6551;51.056;9.466;2022-08-01T08:49:54;97710.50;;;27.76;58.52
12973;BME280;6551;51.056;9.466;2022-08-01T08:52:22;97715.19;;;27.76;57.41
12973;BME280;6551;51.056;9.466;2022-08-01T08:54:50;97705.53;;;27.99;56.73
12973;BME280;6551;51.056;9.466;2022-08-01T08:57:20;97704.69;;;28.16;56.52
12973;BME280;6551;51.056;9.466;2022-08-01T08:59:46;97703.28;;;28.10;55.98
12973;BME280;6551;51.056;9.466;2022-08-01T09:02:12;97710.44;;;28.23;57.02
12973;BME280;6551;51.056;9.466;2022-08-01T09:04:38;97715.31;;;28.38;56.64
12973;BME280;6551;51.056;9.466;2022-08-01T09:07:06;97720.63;;;28.43;55.38
12973;BME280;6551;51.056;9.466;2022-08-01T09:09:32;97718.44;;;27.61;55.85
12973;BME280;6551;51.056;9.466;2022-08-01T09:11:58;97716.06;;;27.51;57.19
12973;BME280;6551;51.056;9.466;2022-08-01T09:14:26;97720.44;;;27.43;56.85
12973;BME280;6551;51.056;9.466;2022-08-01T09:17:08;97719.66;;;27.43;57.55
12973;BME280;6551;51.056;9.466;2022-08-01T09:19:39;97721.44;;;27.13;58.23
12973;BME280;6551;51.056;9.466;2022-08-01T09:22:10;97725.78;;;26.88;58.12
12973;BME280;6551;51.056;9.466;2022-08-01T09:24:37;97722.88;;;27.02;58.97
12973;BME280;6551;51.056;9.466;2022-08-01T09:27:17;97724.66;;;27.15;58.38
12973;BME280;6551;51.056;9.466;2022-08-01T09:29:43;97733.22;;;27.68;56.75
12973;BME280;6551;51.056;9.466;2022-08-01T09:32:10;97722.31;;;28.27;55.76
12973;BME280;6551;51.056;9.466;2022-08-01T09:34:36;97718.50;;;28.49;54.25
12973;BME280;6551;51.056;9.466;2022-08-01T09:37:03;97730.09;;;28.95;55.16
12973;BME280;6551;51.056;9.466;2022-08-01T09:39:35;97733.28;;;29.51;56.09
12973;BME280;6551;51.056;9.466;2022-08-01T09:42:23;97727.28;;;30.06;52.38
12973;BME280;6551;51.056;9.466;2022-08-01T09:44:50;97719.84;;;30.06;51.20
12973;BME280;6551;51.056;9.466;2022-08-01T09:47:16;97720.06;;;30.13;50.03
12973;BME280;6551;51.056;9.466;2022-08-01T09:49:44;97716.63;;;30.53;50.12
12973;BME280;6551;51.056;9.466;2022-08-01T09:52:27;97719.94;;;30.58;48.96
12973;BME280;6551;51.056;9.466;2022-08-01T09:55:05;97726.47;;;29.93;48.79
12973;BME280;6551;51.056;9.466;2022-08-01T09:57:31;97727.19;;;29.57;50.35
12973;BME280;6551;51.056;9.466;2022-08-01T10:00:00;97714.75;;;29.72;50.74
12973;BME280;6551;51.056;9.466;2022-08-01T10:02:35;97719.16;;;29.85;50.58
12973;BME280;6551;51.056;9.466;2022-08-01T10:05:05;97721.81;;;30.18;51.24
12973;BME280;6551;51.056;9.466;2022-08-01T10:07:32;97718.59;;;30.40;49.63
12973;BME280;6551;51.056;9.466;2022-08-01T10:10:15;97714.28;;;30.67;49.73
12973;BME280;6551;51.056;9.466;2022-08-01T10:12:42;97726.66;;;30.73;48.86
12973;BME280;6551;51.056;9.466;2022-08-01T10:15:09;97709.94;;;30.66;48.77
12973;BME280;6551;51.056;9.466;2022-08-01T10:17:38;97711.78;;;30.62;48.69
12973;BME280;6551;51.056;9.466;2022-08-01T10:20:05;97708.84;;;30.43;49.22
12973;BME280;6551;51.056;9.466;2022-08-01T10:22:32;97713.19;;;30.56;49.36
12973;BME280;6551;51.056;9.466;2022-08-01T10:25:04;97714.91;;;31.00;48.58
12973;BME280;6551;51.056;9.466;2022-08-01T10:27:33;97709.75;;;31.26;47.87
12973;BME280;6551;51.056;9.466;2022-08-01T10:30:04;97713.38;;;31.46;47.26
12973;BME280;6551;51.056;9.466;2022-08-01T10:32:32;97699.66;;;31.77;45.66
12973;BME280;6551;51.056;9.466;2022-08-01T10:34:59;97706.28;;;32.04;44.84
12973;BME280;6551;51.056;9.466;2022-08-01T10:37:26;97714.78;;;32.15;45.35
12973;BME280;6551;51.056;9.466;2022-08-01T10:39:53;97716.00;;;32.33;45.55
12973;BME280;6551;51.056;9.466;2022-08-01T10:42:19;97700.25;;;32.33;44.46
12973;BME280;6551;51.056;9.466;2022-08-01T10:44:47;97702.69;;;32.19;44.35
12973;BME280;6551;51.056;9.466;2022-08-01T10:47:21;97701.63;;;31.77;44.97
12973;BME280;6551;51.056;9.466;2022-08-01T10:50:02;97696.28;;;31.53;45.68
12973;BME280;6551;51.056;9.466;2022-08-01T10:52:30;97698.41;;;31.16;45.27
12973;BME280;6551;51.056;9.466;2022-08-01T10:55:07;97698.94;;;30.66;45.97
12973;BME280;6551;51.056;9.466;2022-08-01T10:57:44;97694.06;;;30.47;46.80
12973;BME280;6551;51.056;9.466;2022-08-01T11:00:19;97695.78;;;30.28;46.29
12973;BME280;6551;51.056;9.466;2022-08-01T11:03:03;97697.06;;;30.42;45.61
12973;BME280;6551;51.056;9.466;2022-08-01T11:05:35;97682.16;;;30.31;46.03
12973;BME280;6551;51.056;9.466;2022-08-01T11:08:10;97684.50;;;30.69;46.95
12973;BME280;6551;51.056;9.466;2022-08-01T11:10:42;97690.72;;;31.21;46.01
12973;BME280;6551;51.056;9.466;2022-08-01T11:13:08;97691.63;;;31.41;44.90
12973;BME280;6551;51.056;9.466;2022-08-01T11:15:37;97683.34;;;31.84;44.14
12973;BME280;6551;51.056;9.466;2022-08-01T11:21:00;97684.19;;;32.20;43.58
12973;BME280;6551;51.056;9.466;2022-08-01T11:23:30;97688.75;;;32.47;43.39
12973;BME280;6551;51.056;9.466;2022-08-01T11:28:27;97690.91;;;32.03;43.08
12973;BME280;6551;51.056;9.466;2022-08-01T11:41:16;97689.25;;;29.60;47.05
12973;BME280;6551;51.056;9.466;2022-08-01T11:44:02;97695.94;;;29.38;48.83
12973;BME280;6551;51.056;9.466;2022-08-01T11:52:18;97691.72;;;29.08;48.45
12973;BME280;6551;51.056;9.466;2022-08-01T11:54:54;97693.41;;;29.33;48.22
12973;BME280;6551;51.056;9.466;2022-08-01T11:57:26;97698.16;;;29.69;47.61
12973;BME280;6551;51.056;9.466;2022-08-01T11:59:54;97684.72;;;30.00;46.72
12973;BME280;6551;51.056;9.466;2022-08-01T12:07:17;97677.28;;;30.12;45.77
12973;BME280;6551;51.056;9.466;2022-08-01T12:09:43;97685.41;;;30.09;45.24
12973;BME280;6551;51.056;9.466;2022-08-01T12:12:09;97683.19;;;30.27;47.00
12973;BME280;6551;51.056;9.466;2022-08-01T12:14:35;97675.16;;;30.34;46.79
12973;BME280;6551;51.056;9.466;2022-08-01T12:17:01;97674.72;;;30.44;47.27
12973;BME280;6551;51.056;9.466;2022-08-01T12:19:27;97677.28;;;30.12;45.80
12973;BME280;6551;51.056;9.466;2022-08-01T12:22:12;97686.91;;;30.06;45.93
12973;BME280;6551;51.056;9.466;2022-08-01T12:24:41;97690.09;;;29.96;46.93
12973;BME280;6551;51.056;9.466;2022-08-01T12:27:09;97682.78;;;30.12;46.76
12973;BME280;6551;51.056;9.466;2022-08-01T12:29:41;97672.00;;;30.20;46.42
12973;BME280;6551;51.056;9.466;2022-08-01T12:32:30;97666.13;;;30.21;46.35
12973;BME280;6551;51.056;9.466;2022-08-01T12:37:41;97665.34;;;30.21;46.60
12973;BME280;6551;51.056;9.466;2022-08-01T12:40:30;97669.72;;;30.09;46.88
12973;BME280;6551;51.056;9.466;2022-08-01T12:43:06;97673.34;;;29.77;46.52
12973;BME280;6551;51.056;9.466;2022-08-01T12:45:40;97675.56;;;29.84;47.12
12973;BME280;6551;51.056;9.466;2022-08-01T12:48:12;97669.28;;;29.95;47.93
12973;BME280;6551;51.056;9.466;2022-08-01T12:50:42;97673.03;;;30.15;48.88
12973;BME280;6551;51.056;9.466;2022-08-01T12:53:09;97674.53;;;30.00;47.85
12973;BME280;6551;51.056;9.466;2022-08-01T12:55:51;97673.25;;;30.22;47.39
12973;BME280;6551;51.056;9.466;2022-08-01T12:58:18;97678.84;;;30.38;46.84
12973;BME280;6551;51.056;9.466;2022-08-01T13:00:46;97687.50;;;30.52;47.08
12973;BME280;6551;51.056;9.466;2022-08-01T13:03:18;97687.69;;;30.71;46.73
12973;BME280;6551;51.056;9.466;2022-08-01T13:05:55;97681.56;;;30.90;45.35
12973;BME280;6551;51.056;9.466;2022-08-01T13:11:11;97683.78;;;30.72;44.85
12973;BME280;6551;51.056;9.466;2022-08-01T13:13:49;97674.81;;;30.47;45.32
12973;BME280;6551;51.056;9.466;2022-08-01T13:16:23;97682.25;;;30.47;46.69
12973;BME280;6551;51.056;9.466;2022-08-01T13:18:54;97685.72;;;30.32;47.50
12973;BME280;6551;51.056;9.466;2022-08-01T13:21:25;97690.63;;;30.38;47.72
12973;BME280;6551;51.056;9.466;2022-08-01T13:24:12;97686.28;;;30.25;48.39
12973;BME280;6551;51.056;9.466;2022-08-01T13:26:44;97686.22;;;30.09;49.24
12973;BME280;6551;51.056;9.466;2022-08-01T13:29:13;97696.63;;;29.92;48.29
12973;BME280;6551;51.056;9.466;2022-08-01T13:31:41;97690.19;;;29.88;48.33
12973;BME280;6551;51.056;9.466;2022-08-01T13:34:07;97686.19;;;29.73;49.04
12973;BME280;6551;51.056;9.466;2022-08-01T13:36:34;97687.63;;;29.46;49.28
12973;BME280;6551;51.056;9.466;2022-08-01T13:39:00;97698.38;;;29.19;49.91
12973;BME280;6551;51.056;9.466;2022-08-01T13:41:46;97698.09;;;28.99;49.84
12973;BME280;6551;51.056;9.466;2022-08-01T13:44:13;97706.28;;;28.87;50.76
12973;BME280;6551;51.056;9.466;2022-08-01T13:46:40;97700.38;;;28.77;50.42
12973;BME280;6551;51.056;9.466;2022-08-01T13:49:08;97694.25;;;28.59;50.44
12973;BME280;6551;51.056;9.466;2022-08-01T13:51:35;97697.56;;;28.44;50.44
12973;BME280;6551;51.056;9.466;2022-08-01T13:54:02;97691.03;;;28.57;51.20
12973;BME280;6551;51.056;9.466;2022-08-01T13:56:28;97695.41;;;28.79;51.39
12973;BME280;6551;51.056;9.466;2022-08-01T13:58:55;97696.53;;;28.78;50.75
12973;BME280;6551;51.056;9.466;2022-08-01T14:01:21;97685.09;;;28.76;50.06